Time;durP1;ratioP1;P1;durP2;ratioP2;P2;SDS_P1;SDS_P2;PMS_P1;PMS_P2;Temp;Humidity;BMP_temperature;BMP_pressure;BME280_temperature;BME280_humidity;BME280_pressure;Samples;Min_cycle;Max_cycle;Signal;HPM_P1;HPM_P2
2023/10/01 00:01:08;;;;;;;9.27;7.20;;;16.20;99.90;;;;;;5014460;28;20414;-74
2023/10/01 00:03:36;;;;;;;8.83;7.67;;;16.20;99.90;;;;;;5014775;28;20415;-74
2023/10/01 00:06:06;;;;;;;10.87;7.27;;;16.20;99.90;;;;;;5014332;28;20457;-73
2023/10/01 00:08:34;;;;;;;8.30;7.47;;;16.20;99.90;;;;;;5014621;28;20411;-74
2023/10/01 00:11:03;;;;;;;9.03;7.30;;;16.20;99.90;;;;;;5014296;28;20422;-73
2023/10/01 00:13:31;;;;;;;8.50;6.70;;;16.20;99.90;;;;;;5012972;28;20422;-74
2023/10/01 00:15:59;;;;;;;9.90;7.80;;;16.20;99.90;;;;;;5014403;28;20453;-74
2023/10/01 00:18:28;;;;;;;11.03;7.63;;;16.20;99.90;;;;;;5012783;28;20440;-74
2023/10/01 00:20:56;;;;;;;9.90;6.90;;;16.10;99.90;;;;;;5014716;28;20757;-74
2023/10/01 00:23:26;;;;;;;9.67;7.30;;;16.10;99.90;;;;;;5014086;28;20952;-73
2023/10/01 00:25:55;;;;;;;9.30;8.30;;;16.10;99.90;;;;;;5013944;28;20489;-73
2023/10/01 00:28:24;;;;;;;13.00;8.47;;;16.10;99.90;;;;;;5014312;28;20505;-74
2023/10/01 00:30:52;;;;;;;9.43;8.53;;;16.10;99.90;;;;;;5014255;28;20479;-74
2023/10/01 00:33:20;;;;;;;9.40;8.40;;;16.10;99.90;;;;;;5014125;28;20415;-74
2023/10/01 00:35:50;;;;;;;10.03;8.50;;;16.10;99.90;;;;;;5015759;28;20463;-73
2023/10/01 00:38:19;;;;;;;11.57;8.53;;;16.10;99.90;;;;;;5023962;28;20457;-73
2023/10/01 00:40:50;;;;;;;10.47;7.83;;;16.10;99.90;;;;;;5016566;28;20415;-74
2023/10/01 00:43:25;;;;;;;8.97;7.97;;;16.10;99.90;;;;;;5014213;28;20416;-74
2023/10/01 00:45:53;;;;;;;11.40;9.07;;;16.10;99.90;;;;;;5014011;28;20958;-74
2023/10/01 00:48:24;;;;;;;12.20;8.77;;;16.10;99.90;;;;;;5014295;28;20432;-74
2023/10/01 00:50:54;;;;;;;10.27;8.90;;;16.00;99.90;;;;;;5012746;28;20443;-74
2023/10/01 00:53:22;;;;;;;11.47;9.13;;;16.00;99.90;;;;;;5013913;28;20435;-74
2023/10/01 00:55:53;;;;;;;9.07;8.03;;;16.00;99.90;;;;;;5012379;28;20471;-74
2023/10/01 00:58:22;;;;;;;10.30;9.13;;;16.00;99.90;;;;;;5013754;28;20409;-74
2023/10/01 01:00:52;;;;;;;10.40;9.33;;;16.00;99.90;;;;;;5013576;28;20447;-73
2023/10/01 01:03:22;;;;;;;10.13;9.13;;;16.00;99.90;;;;;;5013980;28;20414;-74
2023/10/01 01:06:12;;;;;;;12.03;9.40;;;16.00;99.90;;;;;;5017727;28;21062;-74
2023/10/01 01:08:52;;;;;;;11.30;8.97;;;16.00;99.90;;;;;;5017807;28;20436;-73
2023/10/01 01:11:23;;;;;;;12.83;9.70;;;16.00;99.90;;;;;;5020748;28;20424;-74
2023/10/01 01:13:53;;;;;;;10.57;9.47;;;16.00;99.90;;;;;;5020623;28;20424;-74
2023/10/01 01:16:21;;;;;;;11.67;9.53;;;15.90;99.90;;;;;;5019112;28;20505;-74
2023/10/01 01:18:51;;;;;;;10.83;9.00;;;15.90;99.90;;;;;;5020897;28;20417;-74
2023/10/01 01:21:20;;;;;;;11.20;10.10;;;15.90;99.90;;;;;;5021317;28;20428;-74
2023/10/01 01:23:50;;;;;;;11.10;10.10;;;15.90;99.90;;;;;;5018661;28;20426;-74
2023/10/01 01:26:21;;;;;;;12.63;10.20;;;15.90;99.90;;;;;;5019973;28;20466;-72
2023/10/01 01:28:50;;;;;;;12.33;11.00;;;15.90;99.90;;;;;;5018433;28;20448;-71
2023/10/01 01:31:19;;;;;;;14.37;10.10;;;15.90;99.90;;;;;;5018415;28;20478;-71
2023/10/01 01:33:55;;;;;;;12.07;10.90;;;15.90;99.90;;;;;;5018491;28;20831;-71
2023/10/01 01:36:24;;;;;;;14.20;10.33;;;15.90;99.90;;;;;;5017558;28;20391;-71
2023/10/01 01:39:25;;;;;;;11.57;9.60;;;15.90;99.90;;;;;;5017422;28;20474;-73
2023/10/01 01:41:54;;;;;;;13.30;11.77;;;15.90;99.90;;;;;;5017284;28;20431;-74
2023/10/01 01:44:23;;;;;;;12.87;10.83;;;15.90;99.90;;;;;;5017137;28;20458;-73
2023/10/01 01:47:00;;;;;;;12.17;11.13;;;15.90;99.90;;;;;;5016969;28;20449;-74
2023/10/01 01:49:29;;;;;;;12.90;11.47;;;15.80;99.90;;;;;;5017345;28;20777;-74
2023/10/01 01:52:03;;;;;;;12.33;11.03;;;15.90;99.90;;;;;;5016899;28;20943;-73
2023/10/01 01:54:34;;;;;;;13.73;11.83;;;15.90;99.90;;;;;;5017028;28;20539;-74
2023/10/01 01:57:07;;;;;;;11.70;10.50;;;15.90;99.90;;;;;;5017078;28;20422;-74
2023/10/01 01:59:38;;;;;;;13.93;10.90;;;15.80;99.90;;;;;;5015481;28;20451;-73
2023/10/01 02:02:09;;;;;;;13.07;11.67;;;15.80;99.90;;;;;;5015600;28;20421;-74
2023/10/01 02:04:58;;;;;;;14.40;12.97;;;15.80;99.90;;;;;;5016713;28;20459;-74
2023/10/01 02:07:33;;;;;;;13.73;12.33;;;15.80;99.90;;;;;;5016408;28;20998;-73
2023/10/01 02:10:06;;;;;;;14.03;12.63;;;15.80;99.90;;;;;;5016481;28;20490;-74
2023/10/01 02:12:36;;;;;;;14.47;12.77;;;15.80;99.90;;;;;;5015196;28;20415;-74
2023/10/01 02:15:08;;;;;;;15.40;13.30;;;15.80;99.90;;;;;;5015013;28;20550;-74
2023/10/01 02:17:36;;;;;;;14.50;13.17;;;15.80;99.90;;;;;;5016362;28;20454;-74
2023/10/01 02:20:09;;;;;;;16.33;13.43;;;15.70;99.90;;;;;;5015088;28;20443;-74
2023/10/01 02:22:38;;;;;;;14.53;13.23;;;15.70;99.90;;;;;;5016849;28;20424;-74
2023/10/01 02:25:10;;;;;;;15.20;13.70;;;15.70;99.90;;;;;;5016420;28;20433;-74
2023/10/01 02:27:48;;;;;;;14.47;13.10;;;15.70;99.90;;;;;;5017005;28;20854;-74
2023/10/01 02:30:21;;;;;;;15.20;13.80;;;15.70;99.90;;;;;;5014880;28;20834;-74
2023/10/01 02:35:35;;;;;;;17.60;14.60;;;15.70;99.90;;;;;;5015768;28;20460;-73
2023/10/01 02:38:05;;;;;;;14.90;13.30;;;15.70;99.90;;;;;;5016079;28;20469;-73
2023/10/01 02:40:37;;;;;;;16.77;15.07;;;15.70;99.90;;;;;;5015884;28;20444;-74
2023/10/01 02:43:12;;;;;;;16.80;13.90;;;15.70;99.90;;;;;;5016555;28;20481;-74
2023/10/01 02:45:41;;;;;;;16.93;15.13;;;15.60;99.90;;;;;;5014523;28;20475;-74
2023/10/01 02:48:17;;;;;;;15.40;13.80;;;15.60;99.90;;;;;;5015836;28;20809;-74
2023/10/01 02:50:51;;;;;;;15.00;13.37;;;15.60;99.90;;;;;;5015886;28;20855;-73
2023/10/01 02:53:21;;;;;;;16.10;14.40;;;15.50;99.90;;;;;;5015977;28;20420;-74
2023/10/01 02:55:51;;;;;;;15.03;13.03;;;15.60;99.90;;;;;;5015505;28;20463;-74
2023/10/01 02:58:27;;;;;;;15.33;13.63;;;15.60;99.90;;;;;;5015870;28;20918;-74
2023/10/01 03:00:56;;;;;;;15.73;14.07;;;15.50;99.90;;;;;;5014429;28;20462;-74
2023/10/01 03:03:32;;;;;;;15.80;14.20;;;15.50;99.90;;;;;;5014237;28;20923;-73
2023/10/01 03:06:08;;;;;;;15.80;14.07;;;15.50;99.90;;;;;;5014142;28;20500;-73
2023/10/01 03:11:34;;;;;;;16.33;14.40;;;15.50;99.90;;;;;;5015634;28;20423;-74
2023/10/01 03:14:09;;;;;;;16.33;14.73;;;15.50;99.90;;;;;;5013922;28;20453;-73
2023/10/01 03:16:42;;;;;;;16.30;14.60;;;15.40;99.90;;;;;;5015305;28;20443;-74
2023/10/01 03:19:18;;;;;;;16.60;15.10;;;15.40;99.90;;;;;;5014167;28;20856;-73
2023/10/01 03:24:39;;;;;;;17.80;15.40;;;15.40;99.90;;;;;;5015115;28;20550;-74
2023/10/01 03:27:25;;;;;;;16.70;15.03;;;15.40;99.90;;;;;;5013221;28;20922;-74
2023/10/01 03:30:00;;;;;;;17.67;15.90;;;15.30;99.90;;;;;;5014974;28;20999;-73
2023/10/01 03:32:33;;;;;;;16.33;14.83;;;15.30;99.90;;;;;;5014978;28;20436;-72
2023/10/01 03:35:08;;;;;;;17.47;15.70;;;15.30;99.90;;;;;;5014852;28;20949;-72
2023/10/01 03:37:39;;;;;;;18.93;16.70;;;15.30;99.90;;;;;;5014803;28;20902;-72
2023/10/01 03:40:18;;;;;;;17.50;15.67;;;15.30;99.90;;;;;;5014926;28;20802;-72
2023/10/01 03:42:51;;;;;;;16.83;15.17;;;15.20;99.90;;;;;;5014781;28;20471;-72
2023/10/01 03:45:37;;;;;;;17.50;15.63;;;15.20;99.90;;;;;;5014727;28;20460;-72
2023/10/01 03:48:07;;;;;;;17.57;15.80;;;15.20;99.90;;;;;;5014918;28;20458;-72
2023/10/01 03:50:45;;;;;;;18.43;16.73;;;15.20;99.90;;;;;;5014655;28;20436;-72
2023/10/01 03:53:18;;;;;;;18.23;15.93;;;15.10;99.90;;;;;;5013276;28;20444;-72
2023/10/01 03:55:54;;;;;;;17.00;15.30;;;15.10;99.90;;;;;;5014764;28;20956;-72
2023/10/01 03:58:29;;;;;;;18.33;16.30;;;15.10;99.90;;;;;;5014992;28;20515;-72
2023/10/01 04:01:15;;;;;;;18.13;16.27;;;15.10;99.90;;;;;;5013198;28;20470;-72
2023/10/01 04:03:43;;;;;;;16.67;15.00;;;15.10;99.90;;;;;;5014682;28;20438;-72
2023/10/01 04:06:12;;;;;;;17.60;15.90;;;15.00;99.90;;;;;;5014895;28;20458;-73
2023/10/01 04:08:44;;;;;;;17.03;15.60;;;15.00;99.90;;;;;;5014198;28;20464;-72
2023/10/01 04:11:16;;;;;;;18.30;16.40;;;15.00;99.90;;;;;;5014478;28;20445;-72
2023/10/01 04:14:07;;;;;;;17.60;16.00;;;15.00;99.90;;;;;;5013290;28;20834;-72
2023/10/01 04:16:34;;;;;;;18.67;16.87;;;15.00;99.90;;;;;;5012876;28;20443;-72
2023/10/01 04:19:10;;;;;;;18.93;16.93;;;14.90;99.90;;;;;;5013008;28;20539;-72
2023/10/01 04:21:38;;;;;;;18.60;16.80;;;14.90;99.90;;;;;;5015068;28;20420;-72
2023/10/01 04:24:08;;;;;;;19.17;17.10;;;14.90;99.90;;;;;;5013093;28;20546;-72
2023/10/01 04:26:36;;;;;;;19.33;17.37;;;14.80;99.90;;;;;;5014395;28;20474;-72
2023/10/01 04:29:08;;;;;;;19.50;17.63;;;14.80;99.90;;;;;;5013895;28;20486;-72
2023/10/01 04:31:49;;;;;;;20.87;18.60;;;14.80;99.90;;;;;;5014730;28;20427;-72
2023/10/01 04:34:17;;;;;;;19.97;17.70;;;14.80;99.90;;;;;;5014043;28;20835;-73
2023/10/01 04:36:50;;;;;;;19.90;18.10;;;14.80;99.90;;;;;;5014015;28;20456;-72
2023/10/01 04:39:19;;;;;;;14.37;13.10;;;14.80;99.90;;;;;;5013115;28;20420;-73
2023/10/01 04:41:48;;;;;;;20.60;18.80;;;14.70;99.90;;;;;;5012516;28;20447;-73
2023/10/01 04:44:19;;;;;;;20.37;18.37;;;14.70;99.90;;;;;;5013790;28;20466;-73
2023/10/01 04:46:51;;;;;;;20.43;18.33;;;14.70;99.90;;;;;;5014178;28;20483;-72
2023/10/01 04:49:39;;;;;;;22.00;18.00;;;14.70;99.90;;;;;;5014129;28;20494;-72
2023/10/01 04:52:11;;;;;;;21.10;18.97;;;14.70;99.90;;;;;;5013737;28;20591;-72
2023/10/01 04:54:44;;;;;;;21.67;19.10;;;14.60;99.90;;;;;;5013717;28;20464;-72
2023/10/01 04:57:13;;;;;;;23.10;19.83;;;14.60;99.90;;;;;;5014109;28;20785;-72
2023/10/01 04:59:56;;;;;;;20.40;17.90;;;14.60;99.90;;;;;;5014113;28;20485;-72
2023/10/01 05:02:29;;;;;;;20.40;18.50;;;14.60;99.90;;;;;;5014075;28;20431;-72
2023/10/01 05:05:09;;;;;;;20.43;18.57;;;14.60;99.90;;;;;;5013799;28;20478;-73
2023/10/01 05:07:38;;;;;;;20.47;18.50;;;14.60;99.90;;;;;;5013855;28;20430;-72
2023/10/01 05:10:09;;;;;;;22.63;20.33;;;14.60;99.90;;;;;;5013940;28;20475;-71
2023/10/01 05:12:43;;;;;;;21.83;19.80;;;14.50;99.90;;;;;;5013839;28;20424;-72
2023/10/01 05:15:24;;;;;;;20.83;18.73;;;14.50;99.90;;;;;;5013706;28;20546;-72
2023/10/01 05:17:55;;;;;;;21.63;19.50;;;14.50;99.90;;;;;;5012347;28;20471;-72
2023/10/01 05:20:25;;;;;;;20.83;18.90;;;14.50;99.90;;;;;;5012238;28;20459;-72
2023/10/01 05:22:54;;;;;;;22.63;20.40;;;14.50;99.90;;;;;;5013464;28;20436;-72
2023/10/01 05:25:24;;;;;;;21.70;19.67;;;14.50;99.90;;;;;;5012021;28;20471;-72
2023/10/01 05:27:54;;;;;;;23.13;21.00;;;14.50;99.90;;;;;;5013524;28;20531;-72
2023/10/01 05:30:36;;;;;;;22.37;20.17;;;14.50;99.90;;;;;;5012006;28;20432;-72
2023/10/01 05:33:06;;;;;;;21.47;19.47;;;14.50;99.90;;;;;;5013294;28;20457;-72
2023/10/01 05:35:41;;;;;;;22.53;20.23;;;14.50;99.90;;;;;;5011759;28;20824;-72
2023/10/01 05:38:10;;;;;;;22.50;20.23;;;14.50;99.90;;;;;;5013585;28;20462;-72
2023/10/01 05:40:40;;;;;;;21.37;19.27;;;14.50;99.90;;;;;;5013256;28;20497;-72
2023/10/01 05:43:14;;;;;;;22.93;20.57;;;14.50;99.90;;;;;;5013525;28;20463;-72
2023/10/01 05:45:50;;;;;;;23.07;20.80;;;14.40;99.90;;;;;;5013232;28;20506;-72
2023/10/01 05:48:19;;;;;;;22.60;20.50;;;14.50;99.90;;;;;;5013089;28;20419;-72
2023/10/01 05:50:49;;;;;;;22.97;20.70;;;14.50;99.90;;;;;;5015294;28;20486;-72
2023/10/01 05:53:18;;;;;;;23.90;21.20;;;14.40;99.90;;;;;;5017017;28;20443;-72
2023/10/01 05:55:47;;;;;;;23.47;21.27;;;14.40;99.90;;;;;;5016680;28;20977;-72
2023/10/01 05:58:16;;;;;;;22.67;20.40;;;14.50;99.90;;;;;;5016844;28;20448;-72
2023/10/01 06:00:56;;;;;;;22.10;20.13;;;14.50;99.90;;;;;;5016722;28;20443;-72
2023/10/01 06:03:26;;;;;;;22.80;20.60;;;14.50;99.90;;;;;;5016726;28;20430;-72
2023/10/01 06:05:58;;;;;;;24.13;21.63;;;14.50;99.90;;;;;;5016643;28;20461;-72
2023/10/01 06:08:32;;;;;;;21.80;19.80;;;14.50;99.90;;;;;;5015365;28;20463;-72
2023/10/01 06:11:09;;;;;;;21.40;19.30;;;14.50;99.90;;;;;;5017131;28;20438;-72
2023/10/01 06:13:39;;;;;;;24.10;21.37;;;14.50;99.90;;;;;;5017107;28;20420;-72
2023/10/01 06:16:15;;;;;;;23.17;20.80;;;14.50;99.90;;;;;;5016992;28;20498;-72
2023/10/01 06:18:49;;;;;;;23.33;20.87;;;14.50;99.90;;;;;;5016652;28;20416;-72
2023/10/01 06:21:19;;;;;;;23.90;21.40;;;14.50;99.90;;;;;;5015077;28;20493;-72
2023/10/01 06:23:51;;;;;;;21.27;19.30;;;14.50;99.90;;;;;;5016546;28;20471;-72
2023/10/01 06:26:29;;;;;;;22.83;20.43;;;14.60;99.90;;;;;;5016245;28;20901;-72
2023/10/01 06:29:00;;;;;;;21.27;19.00;;;14.50;99.90;;;;;;5016252;28;20475;-72
2023/10/01 06:31:47;;;;;;;21.87;19.73;;;14.60;99.90;;;;;;5016199;28;20479;-72
2023/10/01 06:34:19;;;;;;;22.30;19.73;;;14.60;99.90;;;;;;5016021;28;20848;-72
2023/10/01 06:36:51;;;;;;;20.93;18.93;;;14.60;99.90;;;;;;5016308;28;20503;-72
2023/10/01 06:39:20;;;;;;;21.17;19.07;;;14.60;99.90;;;;;;5016069;28;20438;-72
2023/10/01 06:41:49;;;;;;;19.87;17.97;;;14.60;99.90;;;;;;5015905;28;20435;-72
2023/10/01 06:44:19;;;;;;;22.07;19.87;;;14.60;99.90;;;;;;5015777;28;20503;-72
2023/10/01 06:46:50;;;;;;;27.50;20.40;;;14.70;99.90;;;;;;5016191;28;20432;-72
2023/10/01 06:49:19;;;;;;;25.07;21.80;;;14.70;99.90;;;;;;5015696;28;20529;-72
2023/10/01 06:51:50;;;;;;;20.67;18.67;;;14.70;99.90;;;;;;5016057;28;20944;-73
2023/10/01 06:54:19;;;;;;;19.03;17.03;;;14.80;99.90;;;;;;5015849;28;20468;-72
2023/10/01 06:56:47;;;;;;;22.20;19.50;;;14.70;99.90;;;;;;5014375;28;20498;-72
2023/10/01 06:59:17;;;;;;;21.10;19.00;;;14.80;99.90;;;;;;5015911;28;20471;-72
2023/10/01 07:01:56;;;;;;;21.00;19.00;;;14.80;99.90;;;;;;5015675;28;21003;-72
2023/10/01 07:04:25;;;;;;;21.50;19.20;;;14.90;99.90;;;;;;5015939;28;20823;-72
2023/10/01 07:06:54;;;;;;;21.37;19.10;;;14.90;99.90;;;;;;5015672;28;21012;-72
2023/10/01 07:12:09;;;;;;;22.60;20.13;;;14.90;99.90;;;;;;5014603;28;20436;-72
2023/10/01 07:14:43;;;;;;;20.63;18.63;;;15.00;99.90;;;;;;5015462;28;20882;-72
2023/10/01 07:17:14;;;;;;;21.37;19.13;;;14.90;99.90;;;;;;5015558;28;20431;-72
2023/10/01 07:19:47;;;;;;;24.13;18.40;;;15.00;99.90;;;;;;5015834;28;20507;-72
2023/10/01 07:22:15;;;;;;;20.63;18.73;;;15.00;99.90;;;;;;5014209;28;20535;-72
2023/10/01 07:24:44;;;;;;;21.50;19.17;;;15.10;99.90;;;;;;5013949;28;20475;-72
2023/10/01 07:27:13;;;;;;;20.30;18.30;;;15.10;99.90;;;;;;5014078;28;20419;-72
2023/10/01 07:29:42;;;;;;;27.97;19.70;;;15.10;99.90;;;;;;5013904;28;20870;-72
2023/10/01 07:32:13;;;;;;;21.47;19.10;;;15.10;99.90;;;;;;5013889;28;20448;-71
2023/10/01 07:34:45;;;;;;;20.97;18.77;;;15.10;99.90;;;;;;5015857;28;20467;-72
2023/10/01 07:37:23;;;;;;;20.90;18.73;;;15.10;99.90;;;;;;5013848;28;20442;-72
2023/10/01 07:39:55;;;;;;;23.97;20.97;;;15.20;99.90;;;;;;5015318;28;20511;-73
2023/10/01 07:42:25;;;;;;;24.00;21.57;;;15.20;99.90;;;;;;5015683;28;20424;-72
2023/10/01 07:44:54;;;;;;;24.57;21.97;;;15.20;99.90;;;;;;5015594;28;20533;-72
2023/10/01 07:47:31;;;;;;;22.47;19.90;;;15.20;99.90;;;;;;5015424;28;20535;-72
2023/10/01 07:50:05;;;;;;;22.50;20.10;;;15.20;99.90;;;;;;5015091;28;20453;-72
2023/10/01 07:52:36;;;;;;;22.90;20.60;;;15.30;99.90;;;;;;5013715;28;21014;-72
2023/10/01 07:55:29;;;;;;;22.30;19.50;;;15.30;99.90;;;;;;5015640;28;20464;-72
2023/10/01 07:58:16;;;;;;;22.23;19.77;;;15.30;99.90;;;;;;5015172;28;20457;-72
2023/10/01 08:00:44;;;;;;;23.53;20.23;;;15.40;99.90;;;;;;5015199;28;20831;-72
2023/10/01 08:03:28;;;;;;;21.27;18.77;;;15.40;99.90;;;;;;5014657;28;20975;-73
2023/10/01 08:06:10;;;;;;;20.67;18.50;;;15.40;99.90;;;;;;5015101;28;20434;-73
2023/10/01 08:08:37;;;;;;;23.50;20.20;;;15.40;99.90;;;;;;5014704;28;20398;-73
2023/10/01 08:13:55;;;;;;;21.00;17.87;;;15.50;99.90;;;;;;5012181;28;20883;-73
2023/10/01 08:16:22;;;;;;;20.40;17.67;;;15.50;99.90;;;;;;5013041;28;20460;-73
2023/10/01 08:18:57;;;;;;;20.47;17.23;;;15.60;99.90;;;;;;5014470;28;20856;-72
2023/10/01 08:21:36;;;;;;;20.20;18.10;;;15.60;99.90;;;;;;5013045;28;20436;-73
2023/10/01 08:24:13;;;;;;;21.10;18.27;;;15.60;99.90;;;;;;5013065;28;20439;-73
2023/10/01 08:26:43;;;;;;;20.17;16.93;;;15.70;99.90;;;;;;5014763;28;20423;-72
2023/10/01 08:29:15;;;;;;;18.40;16.40;;;15.70;99.90;;;;;;5014197;28;20455;-72
2023/10/01 08:32:07;;;;;;;19.20;15.50;;;15.70;99.90;;;;;;5014639;28;20456;-72
2023/10/01 08:35:01;;;;;;;22.73;16.50;;;15.70;99.90;;;;;;5014097;28;21000;-74
2023/10/01 08:37:22;;;;;;;18.10;15.50;;;15.80;99.90;;;;;;5014153;28;20450;-73
2023/10/01 08:39:54;;;;;;;18.90;15.97;;;15.80;99.90;;;;;;5013795;28;20428;-73
2023/10/01 08:42:28;;;;;;;17.47;15.03;;;15.90;99.90;;;;;;5014044;28;20455;-72
2023/10/01 08:45:06;;;;;;;19.57;15.10;;;15.90;99.90;;;;;;5014112;28;20430;-73
2023/10/01 08:47:37;;;;;;;17.50;15.23;;;15.90;99.90;;;;;;5014013;28;20428;-74
2023/10/01 08:52:57;;;;;;;19.90;15.00;;;16.00;99.90;;;;;;5014047;28;20395;-74
2023/10/01 08:55:35;;;;;;;21.00;17.30;;;16.00;99.90;;;;;;5013883;28;20456;-73
2023/10/01 08:58:25;;;;;;;18.90;15.10;;;16.00;99.90;;;;;;5014117;28;20394;-73
2023/10/01 09:01:11;;;;;;;20.17;14.33;;;16.00;99.90;;;;;;5014231;28;20443;-71
2023/10/01 09:03:47;;;;;;;20.33;14.93;;;16.10;99.90;;;;;;5014103;28;20785;-73
2023/10/01 09:06:29;;;;;;;20.97;15.60;;;16.10;99.90;;;;;;5014390;28;20428;-73
2023/10/01 09:09:19;;;;;;;19.30;14.10;;;16.10;99.90;;;;;;5013413;28;20410;-74
2023/10/01 09:11:50;;;;;;;22.00;16.80;;;16.20;99.90;;;;;;5013590;28;20894;-74
2023/10/01 09:14:39;;;;;;;18.60;14.23;;;16.20;99.90;;;;;;5015369;28;20522;-73
2023/10/01 09:17:24;;;;;;;20.30;15.00;;;16.20;99.90;;;;;;5014678;28;20864;-74
2023/10/01 09:19:56;;;;;;;16.03;12.30;;;16.30;99.90;;;;;;5014952;28;20401;-74
2023/10/01 09:22:41;;;;;;;17.07;13.87;;;16.30;99.90;;;;;;5014946;28;20469;-74
2023/10/01 09:25:17;;;;;;;19.33;14.07;;;16.40;99.90;;;;;;5014809;28;20566;-73
2023/10/01 09:27:57;;;;;;;16.17;13.57;;;16.50;99.90;;;;;;5017171;28;20809;-73
2023/10/01 09:30:27;;;;;;;18.00;13.73;;;16.60;99.90;;;;;;5018900;28;20861;-74
2023/10/01 09:33:04;;;;;;;16.60;14.80;;;16.60;99.90;;;;;;5017353;28;20422;-74
2023/10/01 09:35:49;;;;;;;15.47;13.47;;;16.70;99.90;;;;;;5018425;28;20460;-74
2023/10/01 09:38:25;;;;;;;16.07;14.43;;;16.70;99.90;;;;;;5017060;28;20803;-74
2023/10/01 09:40:54;;;;;;;18.90;14.27;;;16.70;99.90;;;;;;5018510;28;20426;-74
2023/10/01 09:43:27;;;;;;;16.03;13.77;;;16.80;99.90;;;;;;5018431;28;20819;-74
2023/10/01 09:45:58;;;;;;;19.23;15.87;;;16.80;99.90;;;;;;5018252;28;20435;-74
2023/10/01 09:48:33;;;;;;;14.97;12.83;;;16.80;99.90;;;;;;5016991;28;20808;-73
2023/10/01 09:51:13;;;;;;;17.63;12.80;;;16.80;99.90;;;;;;5017063;28;20532;-74
2023/10/01 09:53:48;;;;;;;15.40;12.50;;;16.80;99.90;;;;;;5018554;28;20395;-72
2023/10/01 09:56:26;;;;;;;15.80;12.73;;;16.80;99.90;;;;;;5016617;28;20422;-72
2023/10/01 09:59:03;;;;;;;18.60;15.07;;;16.80;99.90;;;;;;5016650;28;20410;-72
2023/10/01 10:01:33;;;;;;;17.03;13.67;;;16.80;99.90;;;;;;5017700;28;20432;-73
2023/10/01 10:04:04;;;;;;;16.70;13.37;;;16.80;99.90;;;;;;5017918;28;20474;-72
2023/10/01 10:06:33;;;;;;;18.43;13.63;;;16.80;99.90;;;;;;5016946;28;20444;-73
2023/10/01 10:09:05;;;;;;;17.50;13.10;;;16.80;99.90;;;;;;5016348;28;20469;-73
2023/10/01 10:11:37;;;;;;;18.67;14.97;;;16.80;99.90;;;;;;5018126;28;20927;-72
2023/10/01 10:14:45;;;;;;;15.70;13.53;;;16.80;99.90;;;;;;5018040;28;20786;-73
2023/10/01 10:17:19;;;;;;;15.37;12.23;;;16.80;99.90;;;;;;4979716;28;20458;-72
2023/10/01 10:20:15;;;;;;;16.80;14.60;;;16.80;99.90;;;;;;4979919;28;20427;-72
2023/10/01 10:23:16;;;;;;;16.90;14.00;;;16.80;99.90;;;;;;5012934;28;20464;-73
2023/10/01 10:25:46;;;;;;;19.53;14.10;;;16.90;99.90;;;;;;5015151;28;20483;-72
2023/10/01 10:28:24;;;;;;;16.97;13.67;;;16.90;99.90;;;;;;5016805;28;20528;-72
2023/10/01 10:31:29;;;;;;;19.03;15.00;;;16.90;99.90;;;;;;5016230;28;20823;-73
2023/10/01 10:34:36;;;;;;;17.10;11.63;;;16.90;99.90;;;;;;5016556;28;20472;-72
2023/10/01 10:37:06;;;;;;;17.33;13.40;;;16.90;99.90;;;;;;5014946;28;20466;-72
2023/10/01 10:40:13;;;;;;;14.90;11.87;;;17.00;99.90;;;;;;5016664;28;20461;-73
2023/10/01 10:42:46;;;;;;;19.80;13.83;;;17.00;99.90;;;;;;5016365;28;20875;-73
2023/10/01 10:45:21;;;;;;;17.30;12.77;;;17.00;99.90;;;;;;5014658;28;20478;-73
2023/10/01 10:48:02;;;;;;;21.10;16.80;;;17.00;99.90;;;;;;5014750;28;20435;-73
2023/10/01 10:50:44;;;;;;;15.60;13.50;;;17.00;99.90;;;;;;5014890;28;20436;-73
2023/10/01 10:53:19;;;;;;;18.43;14.00;;;17.00;99.90;;;;;;5016046;28;20404;-73
2023/10/01 10:56:04;;;;;;;18.60;14.13;;;17.00;99.90;;;;;;5015843;28;20434;-73
2023/10/01 10:58:37;;;;;;;18.10;14.97;;;17.00;99.90;;;;;;5016210;28;20465;-73
2023/10/01 11:01:19;;;;;;;15.73;14.03;;;17.00;99.90;;;;;;5016079;28;20445;-73
2023/10/01 11:03:50;;;;;;;16.70;13.00;;;17.00;99.90;;;;;;5015903;28;20877;-73
2023/10/01 11:06:23;;;;;;;15.27;13.20;;;17.10;99.90;;;;;;5015811;28;20445;-73
2023/10/01 11:08:52;;;;;;;21.87;14.30;;;17.10;99.90;;;;;;5016194;28;20434;-74
2023/10/01 11:11:25;;;;;;;15.03;12.50;;;17.10;99.90;;;;;;5015433;28;21047;-73
2023/10/01 11:14:16;;;;;;;18.30;14.63;;;17.20;99.90;;;;;;5015592;28;20801;-74
2023/10/01 11:16:46;;;;;;;16.90;12.93;;;17.20;99.90;;;;;;5016035;28;20398;-73
2023/10/01 11:19:17;;;;;;;16.03;12.50;;;17.20;99.90;;;;;;5015373;28;20421;-73
2023/10/01 11:21:54;;;;;;;15.10;12.77;;;17.30;99.90;;;;;;5015328;28;20885;-73
2023/10/01 11:24:30;;;;;;;14.30;11.27;;;17.30;99.90;;;;;;5014047;28;20442;-73
2023/10/01 11:27:19;;;;;;;19.33;12.50;;;17.40;99.90;;;;;;5014036;28;20425;-74
2023/10/01 11:30:15;;;;;;;16.73;12.30;;;17.40;99.90;;;;;;5015188;28;20426;-74
2023/10/01 11:32:58;;;;;;;13.47;10.43;;;17.50;99.90;;;;;;5015046;28;20455;-74
2023/10/01 11:35:32;;;;;;;15.87;11.60;;;17.50;99.90;;;;;;5015006;28;20483;-74
2023/10/01 11:38:09;;;;;;;14.67;9.87;;;17.60;99.90;;;;;;5015186;28;20531;-74
2023/10/01 11:43:28;;;;;;;14.23;10.50;;;17.70;99.90;;;;;;5013808;28;20465;-74
2023/10/01 11:46:29;;;;;;;13.60;9.67;;;17.70;99.90;;;;;;5014947;28;20431;-74
2023/10/01 11:49:03;;;;;;;13.53;9.43;;;17.80;99.90;;;;;;4973728;28;20426;-74
2023/10/01 11:51:42;;;;;;;15.30;10.70;;;17.80;99.90;;;;;;5004251;28;20772;-74
2023/10/01 11:54:11;;;;;;;13.40;8.60;;;17.80;99.90;;;;;;5013546;28;20467;-74
2023/10/01 11:56:43;;;;;;;13.37;9.93;;;17.80;99.90;;;;;;5013300;28;20426;-74
2023/10/01 11:59:20;;;;;;;13.00;9.50;;;17.90;99.90;;;;;;5014811;28;20490;-74
2023/10/01 12:01:52;;;;;;;12.30;9.90;;;17.90;99.90;;;;;;5015013;28;20391;-74
2023/10/01 12:04:43;;;;;;;14.27;9.80;;;17.90;99.90;;;;;;5015080;28;20555;-74
2023/10/01 12:07:18;;;;;;;10.97;9.73;;;17.90;99.90;;;;;;5015259;28;20431;-74
2023/10/01 12:09:51;;;;;;;13.10;10.00;;;18.00;99.90;;;;;;5015322;28;20415;-74
2023/10/01 12:12:21;;;;;;;19.20;14.10;;;18.00;99.90;;;;;;5013212;28;20485;-74
2023/10/01 12:15:33;;;;;;;15.60;10.47;;;18.10;99.90;;;;;;5014580;28;20780;-74
2023/10/01 12:17:52;;;;;;;11.47;8.60;;;18.10;99.90;;;;;;5013140;28;20426;-74
2023/10/01 12:20:23;;;;;;;17.70;9.80;;;18.20;99.90;;;;;;5014225;28;20440;-74
2023/10/01 12:23:09;;;;;;;14.53;9.70;;;18.20;99.90;;;;;;5014577;28;20417;-74
2023/10/01 12:25:45;;;;;;;15.17;10.07;;;18.30;99.90;;;;;;5012975;28;20529;-74
2023/10/01 12:28:19;;;;;;;12.87;9.13;;;18.40;99.90;;;;;;5013242;28;20471;-73
2023/10/01 12:30:57;;;;;;;14.43;10.03;;;18.50;99.90;;;;;;5012968;28;20937;-74
2023/10/01 12:33:38;;;;;;;15.17;9.20;;;18.50;99.90;;;;;;5014275;28;20481;-74
2023/10/01 12:36:11;;;;;;;17.20;9.97;;;18.60;99.90;;;;;;5014250;28;20455;-74
2023/10/01 12:38:40;;;;;;;12.43;8.90;;;18.70;99.90;;;;;;5013989;28;20428;-74
2023/10/01 12:41:07;;;;;;;14.77;9.20;;;18.80;99.90;;;;;;5014162;28;20527;-74
2023/10/01 12:43:38;;;;;;;12.47;8.80;;;18.80;99.90;;;;;;5012663;28;20448;-74
2023/10/01 12:46:13;;;;;;;16.40;9.77;;;18.90;99.90;;;;;;5014245;28;20430;-74
2023/10/01 12:49:14;;;;;;;12.33;8.50;;;19.00;99.90;;;;;;5014285;28;20902;-74
2023/10/01 12:51:48;;;;;;;14.57;10.07;;;19.00;99.90;;;;;;5012816;28;20407;-74
2023/10/01 12:54:19;;;;;;;9.97;7.93;;;19.10;99.90;;;;;;5014155;28;20452;-74
2023/10/01 12:57:02;;;;;;;12.70;10.13;;;19.10;99.90;;;;;;5020573;28;20431;-73
2023/10/01 12:59:38;;;;;;;14.33;9.90;;;19.20;99.90;;;;;;5021172;28;20421;-74
2023/10/01 13:02:21;;;;;;;12.63;9.17;;;19.20;99.90;;;;;;5013933;28;20503;-74
2023/10/01 13:05:16;;;;;;;15.63;8.70;;;19.20;99.90;;;;;;5013831;28;20546;-75
2023/10/01 13:07:41;;;;;;;13.13;8.37;;;19.30;99.90;;;;;;5013882;28;20440;-74
2023/10/01 13:10:10;;;;;;;14.73;9.60;;;19.30;99.90;;;;;;5013697;28;20475;-74
2023/10/01 13:12:39;;;;;;;13.43;8.47;;;19.30;99.90;;;;;;5012297;28;20894;-74
2023/10/01 13:15:18;;;;;;;15.90;10.27;;;19.40;99.90;;;;;;5013792;28;20480;-74
2023/10/01 13:18:00;;;;;;;15.63;8.73;;;19.40;99.90;;;;;;5012372;28;20495;-75
2023/10/01 13:20:31;;;;;;;12.63;8.40;;;19.40;99.90;;;;;;5013756;28;20463;-74
2023/10/01 13:23:06;;;;;;;14.13;8.17;;;19.40;99.90;;;;;;5012284;28;20439;-74
2023/10/01 13:25:36;;;;;;;12.63;8.63;;;19.40;99.90;;;;;;5013642;28;20539;-74
2023/10/01 13:28:05;;;;;;;12.23;8.60;;;19.50;99.90;;;;;;5013252;28;20929;-75